sensor_id;sensor_type;location;lat;lon;timestamp;P1;durP1;ratioP1;P2;durP2;ratioP2
53022;SDS011;38913;44.338;11.206;2023-02-01T00:01:17;10.85;;;5.85;;
53022;SDS011;38913;44.338;11.206;2023-02-01T00:03:42;9.68;;;4.97;;
53022;SDS011;38913;44.338;11.206;2023-02-01T00:06:08;9.43;;;4.70;;
53022;SDS011;38913;44.338;11.206;2023-02-01T00:08:33;8.13;;;4.72;;
53022;SDS011;38913;44.338;11.206;2023-02-01T00:10:59;7.30;;;5.00;;
53022;SDS011;38913;44.338;11.206;2023-02-01T00:13:28;8.15;;;5.20;;
53022;SDS011;38913;44.338;11.206;2023-02-01T00:15:53;8.27;;;5.07;;
53022;SDS011;38913;44.338;11.206;2023-02-01T00:18:19;7.15;;;4.55;;
53022;SDS011;38913;44.338;11.206;2023-02-01T00:20:45;10.07;;;4.90;;
53022;SDS011;38913;44.338;11.206;2023-02-01T00:23:12;7.45;;;4.57;;
53022;SDS011;38913;44.338;11.206;2023-02-01T00:25:37;8.70;;;5.03;;
53022;SDS011;38913;44.338;11.206;2023-02-01T00:28:03;8.55;;;5.10;;
53022;SDS011;38913;44.338;11.206;2023-02-01T00:30:28;7.53;;;4.45;;
53022;SDS011;38913;44.338;11.206;2023-02-01T00:32:53;8.55;;;4.18;;
53022;SDS011;38913;44.338;11.206;2023-02-01T00:35:19;8.18;;;4.50;;
53022;SDS011;38913;44.338;11.206;2023-02-01T00:37:44;7.43;;;4.40;;
53022;SDS011;38913;44.338;11.206;2023-02-01T00:40:10;7.18;;;3.97;;
53022;SDS011;38913;44.338;11.206;2023-02-01T00:42:35;8.82;;;4.97;;
53022;SDS011;38913;44.338;11.206;2023-02-01T00:45:01;8.15;;;4.68;;
53022;SDS011;38913;44.338;11.206;2023-02-01T00:47:26;8.23;;;4.25;;
53022;SDS011;38913;44.338;11.206;2023-02-01T00:49:51;8.68;;;4.40;;
53022;SDS011;38913;44.338;11.206;2023-02-01T00:52:16;9.50;;;4.55;;
53022;SDS011;38913;44.338;11.206;2023-02-01T00:54:42;7.60;;;4.13;;
53022;SDS011;38913;44.338;11.206;2023-02-01T00:57:07;7.20;;;4.17;;
53022;SDS011;38913;44.338;11.206;2023-02-01T00:59:32;8.88;;;4.07;;
53022;SDS011;38913;44.338;11.206;2023-02-01T01:01:58;6.55;;;3.80;;
53022;SDS011;38913;44.338;11.206;2023-02-01T01:04:23;7.82;;;4.05;;
53022;SDS011;38913;44.338;11.206;2023-02-01T01:06:48;6.38;;;3.83;;
53022;SDS011;38913;44.338;11.206;2023-02-01T01:09:13;8.05;;;4.35;;
53022;SDS011;38913;44.338;11.206;2023-02-01T01:11:39;6.37;;;4.23;;
53022;SDS011;38913;44.338;11.206;2023-02-01T01:14:05;7.68;;;4.13;;
53022;SDS011;38913;44.338;11.206;2023-02-01T01:16:31;6.50;;;3.75;;
53022;SDS011;38913;44.338;11.206;2023-02-01T01:18:57;7.43;;;3.80;;
53022;SDS011;38913;44.338;11.206;2023-02-01T01:21:23;7.10;;;3.78;;
53022;SDS011;38913;44.338;11.206;2023-02-01T01:23:48;6.85;;;3.72;;
53022;SDS011;38913;44.338;11.206;2023-02-01T01:26:15;8.38;;;4.07;;
53022;SDS011;38913;44.338;11.206;2023-02-01T01:28:40;7.18;;;3.63;;
53022;SDS011;38913;44.338;11.206;2023-02-01T01:31:09;5.68;;;3.75;;
53022;SDS011;38913;44.338;11.206;2023-02-01T01:33:34;6.50;;;3.72;;
53022;SDS011;38913;44.338;11.206;2023-02-01T01:36:01;7.47;;;3.80;;
53022;SDS011;38913;44.338;11.206;2023-02-01T01:38:26;5.30;;;3.33;;
53022;SDS011;38913;44.338;11.206;2023-02-01T01:40:51;5.95;;;3.50;;
53022;SDS011;38913;44.338;11.206;2023-02-01T01:43:17;6.43;;;4.10;;
53022;SDS011;38913;44.338;11.206;2023-02-01T01:45:44;7.60;;;3.45;;
53022;SDS011;38913;44.338;11.206;2023-02-01T01:50:36;7.97;;;3.72;;
53022;SDS011;38913;44.338;11.206;2023-02-01T01:53:03;6.32;;;3.75;;
53022;SDS011;38913;44.338;11.206;2023-02-01T01:55:31;5.53;;;3.65;;
53022;SDS011;38913;44.338;11.206;2023-02-01T01:57:58;5.82;;;3.25;;
53022;SDS011;38913;44.338;11.206;2023-02-01T02:00:25;5.22;;;3.40;;
53022;SDS011;38913;44.338;11.206;2023-02-01T02:02:53;7.60;;;3.75;;
53022;SDS011;38913;44.338;11.206;2023-02-01T02:05:19;4.78;;;2.95;;
53022;SDS011;38913;44.338;11.206;2023-02-01T02:07:46;7.40;;;3.90;;
53022;SDS011;38913;44.338;11.206;2023-02-01T02:10:11;6.65;;;3.28;;
53022;SDS011;38913;44.338;11.206;2023-02-01T02:12:40;7.45;;;3.55;;
53022;SDS011;38913;44.338;11.206;2023-02-01T02:15:07;5.22;;;3.45;;
53022;SDS011;38913;44.338;11.206;2023-02-01T02:17:36;4.70;;;3.20;;
53022;SDS011;38913;44.338;11.206;2023-02-01T02:20:48;8.02;;;3.70;;
53022;SDS011;38913;44.338;11.206;2023-02-01T02:43:43;5.30;;;3.58;;
53022;SDS011;38913;44.338;11.206;2023-02-01T02:46:37;5.47;;;3.03;;
53022;SDS011;38913;44.338;11.206;2023-02-01T02:49:35;6.18;;;3.35;;
53022;SDS011;38913;44.338;11.206;2023-02-01T02:52:13;6.07;;;2.95;;
53022;SDS011;38913;44.338;11.206;2023-02-01T02:54:59;5.82;;;3.03;;
53022;SDS011;38913;44.338;11.206;2023-02-01T02:57:26;5.70;;;3.20;;
53022;SDS011;38913;44.338;11.206;2023-02-01T03:00:15;6.40;;;3.30;;
53022;SDS011;38913;44.338;11.206;2023-02-01T03:03:01;7.63;;;3.15;;
53022;SDS011;38913;44.338;11.206;2023-02-01T03:05:46;6.35;;;3.25;;
53022;SDS011;38913;44.338;11.206;2023-02-01T03:16:21;6.88;;;3.10;;
53022;SDS011;38913;44.338;11.206;2023-02-01T03:18:57;4.25;;;2.80;;
53022;SDS011;38913;44.338;11.206;2023-02-01T03:21:24;7.75;;;3.40;;
53022;SDS011;38913;44.338;11.206;2023-02-01T03:23:51;6.85;;;2.90;;
53022;SDS011;38913;44.338;11.206;2023-02-01T03:26:17;5.15;;;3.03;;
53022;SDS011;38913;44.338;11.206;2023-02-01T03:28:49;7.05;;;3.35;;
53022;SDS011;38913;44.338;11.206;2023-02-01T03:31:17;7.18;;;3.53;;
53022;SDS011;38913;44.338;11.206;2023-02-01T03:33:42;5.10;;;2.97;;
53022;SDS011;38913;44.338;11.206;2023-02-01T03:36:27;7.10;;;3.65;;
53022;SDS011;38913;44.338;11.206;2023-02-01T03:39:05;6.03;;;2.88;;
53022;SDS011;38913;44.338;11.206;2023-02-01T03:41:40;6.38;;;3.08;;
53022;SDS011;38913;44.338;11.206;2023-02-01T03:46:54;6.17;;;2.97;;
53022;SDS011;38913;44.338;11.206;2023-02-01T03:49:39;8.27;;;3.33;;
53022;SDS011;38913;44.338;11.206;2023-02-01T03:52:03;4.18;;;2.78;;
53022;SDS011;38913;44.338;11.206;2023-02-01T03:54:30;8.57;;;3.03;;
53022;SDS011;38913;44.338;11.206;2023-02-01T03:56:56;5.68;;;2.72;;
53022;SDS011;38913;44.338;11.206;2023-02-01T03:59:24;6.60;;;2.88;;
53022;SDS011;38913;44.338;11.206;2023-02-01T04:01:49;6.65;;;3.15;;
53022;SDS011;38913;44.338;11.206;2023-02-01T04:04:14;4.03;;;2.95;;
53022;SDS011;38913;44.338;11.206;2023-02-01T04:06:48;6.20;;;3.10;;
53022;SDS011;38913;44.338;11.206;2023-02-01T04:09:14;7.43;;;3.60;;
53022;SDS011;38913;44.338;11.206;2023-02-01T04:11:39;6.78;;;3.30;;
53022;SDS011;38913;44.338;11.206;2023-02-01T04:14:05;6.20;;;3.08;;
53022;SDS011;38913;44.338;11.206;2023-02-01T04:16:30;6.10;;;3.38;;
53022;SDS011;38913;44.338;11.206;2023-02-01T04:18:56;6.63;;;3.30;;
53022;SDS011;38913;44.338;11.206;2023-02-01T04:21:22;5.88;;;2.95;;
53022;SDS011;38913;44.338;11.206;2023-02-01T04:23:47;4.85;;;2.88;;
53022;SDS011;38913;44.338;11.206;2023-02-01T04:26:13;3.95;;;2.80;;
53022;SDS011;38913;44.338;11.206;2023-02-01T04:28:38;4.95;;;2.65;;
53022;SDS011;38913;44.338;11.206;2023-02-01T04:31:03;6.03;;;2.72;;
53022;SDS011;38913;44.338;11.206;2023-02-01T04:33:29;5.95;;;2.63;;
53022;SDS011;38913;44.338;11.206;2023-02-01T04:35:54;4.60;;;2.38;;
53022;SDS011;38913;44.338;11.206;2023-02-01T04:38:20;6.32;;;3.40;;
53022;SDS011;38913;44.338;11.206;2023-02-01T04:40:46;6.35;;;2.60;;
53022;SDS011;38913;44.338;11.206;2023-02-01T04:43:11;5.40;;;3.05;;
53022;SDS011;38913;44.338;11.206;2023-02-01T04:45:37;4.50;;;2.90;;
53022;SDS011;38913;44.338;11.206;2023-02-01T04:48:02;4.50;;;2.87;;
53022;SDS011;38913;44.338;11.206;2023-02-01T04:50:27;3.45;;;2.38;;
53022;SDS011;38913;44.338;11.206;2023-02-01T04:52:53;4.32;;;2.42;;
53022;SDS011;38913;44.338;11.206;2023-02-01T04:55:18;6.45;;;2.90;;
53022;SDS011;38913;44.338;11.206;2023-02-01T04:57:43;6.13;;;3.07;;
53022;SDS011;38913;44.338;11.206;2023-02-01T05:00:09;4.68;;;2.83;;
53022;SDS011;38913;44.338;11.206;2023-02-01T05:02:34;6.93;;;2.70;;
53022;SDS011;38913;44.338;11.206;2023-02-01T05:05:00;4.70;;;2.85;;
53022;SDS011;38913;44.338;11.206;2023-02-01T05:07:25;6.03;;;2.85;;
53022;SDS011;38913;44.338;11.206;2023-02-01T05:09:51;6.88;;;3.13;;
53022;SDS011;38913;44.338;11.206;2023-02-01T05:12:16;4.72;;;2.50;;
53022;SDS011;38913;44.338;11.206;2023-02-01T05:15:00;6.35;;;3.10;;
53022;SDS011;38913;44.338;11.206;2023-02-01T05:17:25;6.00;;;3.00;;
53022;SDS011;38913;44.338;11.206;2023-02-01T05:19:50;6.07;;;2.50;;
53022;SDS011;38913;44.338;11.206;2023-02-01T05:22:15;7.15;;;3.00;;
53022;SDS011;38913;44.338;11.206;2023-02-01T05:24:41;4.65;;;2.90;;
53022;SDS011;38913;44.338;11.206;2023-02-01T05:27:06;5.67;;;3.03;;
53022;SDS011;38913;44.338;11.206;2023-02-01T05:29:31;4.53;;;2.83;;
53022;SDS011;38913;44.338;11.206;2023-02-01T05:31:57;5.20;;;2.92;;
53022;SDS011;38913;44.338;11.206;2023-02-01T05:34:22;8.30;;;3.00;;
53022;SDS011;38913;44.338;11.206;2023-02-01T05:36:47;5.35;;;2.78;;
53022;SDS011;38913;44.338;11.206;2023-02-01T05:39:12;5.25;;;2.80;;
53022;SDS011;38913;44.338;11.206;2023-02-01T05:41:38;5.78;;;3.78;;
53022;SDS011;38913;44.338;11.206;2023-02-01T05:44:03;4.78;;;2.55;;
53022;SDS011;38913;44.338;11.206;2023-02-01T05:46:29;4.68;;;2.72;;
53022;SDS011;38913;44.338;11.206;2023-02-01T05:48:55;6.47;;;2.88;;
53022;SDS011;38913;44.338;11.206;2023-02-01T05:51:20;7.32;;;2.90;;
53022;SDS011;38913;44.338;11.206;2023-02-01T05:53:45;3.83;;;2.72;;
53022;SDS011;38913;44.338;11.206;2023-02-01T05:56:11;7.65;;;2.75;;
53022;SDS011;38913;44.338;11.206;2023-02-01T05:58:36;6.22;;;2.55;;
53022;SDS011;38913;44.338;11.206;2023-02-01T06:01:02;5.82;;;2.80;;
53022;SDS011;38913;44.338;11.206;2023-02-01T06:03:27;6.07;;;3.13;;
53022;SDS011;38913;44.338;11.206;2023-02-01T06:05:53;4.90;;;2.80;;
53022;SDS011;38913;44.338;11.206;2023-02-01T06:08:18;5.53;;;3.17;;
53022;SDS011;38913;44.338;11.206;2023-02-01T06:10:44;6.97;;;2.80;;
53022;SDS011;38913;44.338;11.206;2023-02-01T06:13:09;8.40;;;4.13;;
53022;SDS011;38913;44.338;11.206;2023-02-01T06:15:34;5.35;;;3.03;;
53022;SDS011;38913;44.338;11.206;2023-02-01T06:18:00;4.80;;;3.10;;
53022;SDS011;38913;44.338;11.206;2023-02-01T06:20:25;7.43;;;3.83;;
53022;SDS011;38913;44.338;11.206;2023-02-01T06:22:51;5.05;;;3.17;;
53022;SDS011;38913;44.338;11.206;2023-02-01T06:25:17;6.25;;;2.75;;
53022;SDS011;38913;44.338;11.206;2023-02-01T06:27:43;5.32;;;2.70;;
53022;SDS011;38913;44.338;11.206;2023-02-01T06:30:10;7.22;;;3.40;;
53022;SDS011;38913;44.338;11.206;2023-02-01T06:32:35;6.22;;;3.30;;
53022;SDS011;38913;44.338;11.206;2023-02-01T06:35:01;7.18;;;3.53;;
53022;SDS011;38913;44.338;11.206;2023-02-01T06:37:26;7.05;;;3.53;;
53022;SDS011;38913;44.338;11.206;2023-02-01T06:39:54;4.75;;;3.20;;
53022;SDS011;38913;44.338;11.206;2023-02-01T06:42:19;7.75;;;4.97;;
53022;SDS011;38913;44.338;11.206;2023-02-01T06:44:44;7.72;;;4.75;;
53022;SDS011;38913;44.338;11.206;2023-02-01T06:47:10;7.78;;;4.85;;
53022;SDS011;38913;44.338;11.206;2023-02-01T06:49:35;10.20;;;5.45;;
53022;SDS011;38913;44.338;11.206;2023-02-01T06:52:00;4.80;;;2.80;;
53022;SDS011;38913;44.338;11.206;2023-02-01T06:54:26;4.32;;;3.10;;
53022;SDS011;38913;44.338;11.206;2023-02-01T06:56:51;4.95;;;3.50;;
53022;SDS011;38913;44.338;11.206;2023-02-01T06:59:17;6.13;;;3.83;;
53022;SDS011;38913;44.338;11.206;2023-02-01T07:01:42;6.43;;;3.53;;
53022;SDS011;38913;44.338;11.206;2023-02-01T07:04:09;5.25;;;3.00;;
53022;SDS011;38913;44.338;11.206;2023-02-01T07:06:34;5.18;;;2.90;;
53022;SDS011;38913;44.338;11.206;2023-02-01T07:09:00;5.22;;;3.20;;
53022;SDS011;38913;44.338;11.206;2023-02-01T07:11:25;5.20;;;3.22;;
53022;SDS011;38913;44.338;11.206;2023-02-01T07:13:52;7.38;;;4.45;;
53022;SDS011;38913;44.338;11.206;2023-02-01T07:16:18;6.43;;;2.88;;
53022;SDS011;38913;44.338;11.206;2023-02-01T07:18:44;5.93;;;3.67;;
53022;SDS011;38913;44.338;11.206;2023-02-01T07:21:10;5.50;;;3.40;;
53022;SDS011;38913;44.338;11.206;2023-02-01T07:23:35;6.03;;;3.33;;
53022;SDS011;38913;44.338;11.206;2023-02-01T07:26:03;7.03;;;3.38;;
53022;SDS011;38913;44.338;11.206;2023-02-01T07:28:29;4.82;;;3.22;;
53022;SDS011;38913;44.338;11.206;2023-02-01T07:30:55;8.68;;;4.97;;
53022;SDS011;38913;44.338;11.206;2023-02-01T07:33:21;8.15;;;3.92;;
53022;SDS011;38913;44.338;11.206;2023-02-01T07:35:47;6.50;;;4.10;;
53022;SDS011;38913;44.338;11.206;2023-02-01T07:38:12;8.70;;;5.55;;
53022;SDS011;38913;44.338;11.206;2023-02-01T07:40:37;7.72;;;4.85;;
53022;SDS011;38913;44.338;11.206;2023-02-01T07:43:03;14.50;;;10.02;;
53022;SDS011;38913;44.338;11.206;2023-02-01T07:45:31;4.93;;;2.95;;
53022;SDS011;38913;44.338;11.206;2023-02-01T07:47:56;5.85;;;3.95;;
53022;SDS011;38913;44.338;11.206;2023-02-01T07:50:21;5.85;;;4.03;;
53022;SDS011;38913;44.338;11.206;2023-02-01T07:52:47;5.25;;;3.13;;
53022;SDS011;38913;44.338;11.206;2023-02-01T07:55:12;6.53;;;3.47;;
53022;SDS011;38913;44.338;11.206;2023-02-01T07:57:38;5.65;;;3.83;;
53022;SDS011;38913;44.338;11.206;2023-02-01T08:00:03;7.13;;;3.88;;
53022;SDS011;38913;44.338;11.206;2023-02-01T08:02:47;5.55;;;3.70;;
53022;SDS011;38913;44.338;11.206;2023-02-01T08:05:12;7.53;;;5.10;;
53022;SDS011;38913;44.338;11.206;2023-02-01T08:07:37;7.55;;;4.50;;
53022;SDS011;38913;44.338;11.206;2023-02-01T08:10:03;18.23;;;10.15;;
53022;SDS011;38913;44.338;11.206;2023-02-01T08:12:30;7.50;;;4.40;;
53022;SDS011;38913;44.338;11.206;2023-02-01T08:14:55;5.68;;;3.20;;
53022;SDS011;38913;44.338;11.206;2023-02-01T08:17:21;7.90;;;3.28;;
53022;SDS011;38913;44.338;11.206;2023-02-01T08:19:46;5.55;;;3.80;;
53022;SDS011;38913;44.338;11.206;2023-02-01T08:22:12;6.03;;;3.70;;
53022;SDS011;38913;44.338;11.206;2023-02-01T08:24:37;7.82;;;3.90;;
53022;SDS011;38913;44.338;11.206;2023-02-01T08:27:05;7.18;;;3.20;;
53022;SDS011;38913;44.338;11.206;2023-02-01T08:29:31;6.82;;;3.33;;
53022;SDS011;38913;44.338;11.206;2023-02-01T08:31:56;7.20;;;3.33;;
53022;SDS011;38913;44.338;11.206;2023-02-01T08:34:22;7.68;;;4.28;;
53022;SDS011;38913;44.338;11.206;2023-02-01T08:36:47;6.80;;;4.15;;
53022;SDS011;38913;44.338;11.206;2023-02-01T08:39:13;7.00;;;4.90;;
53022;SDS011;38913;44.338;11.206;2023-02-01T08:41:38;8.70;;;5.07;;
53022;SDS011;38913;44.338;11.206;2023-02-01T08:44:03;9.43;;;5.07;;
53022;SDS011;38913;44.338;11.206;2023-02-01T08:46:29;7.13;;;3.80;;
53022;SDS011;38913;44.338;11.206;2023-02-01T08:48:54;6.22;;;4.05;;
53022;SDS011;38913;44.338;11.206;2023-02-01T08:51:20;7.70;;;3.60;;
53022;SDS011;38913;44.338;11.206;2023-02-01T08:53:46;8.77;;;3.63;;
53022;SDS011;38913;44.338;11.206;2023-02-01T08:56:12;8.25;;;3.92;;
53022;SDS011;38913;44.338;11.206;2023-02-01T08:58:38;6.13;;;3.53;;
53022;SDS011;38913;44.338;11.206;2023-02-01T09:01:04;4.70;;;3.35;;
53022;SDS011;38913;44.338;11.206;2023-02-01T09:03:29;4.47;;;3.10;;
53022;SDS011;38913;44.338;11.206;2023-02-01T09:06:02;7.47;;;3.55;;
53022;SDS011;38913;44.338;11.206;2023-02-01T09:08:27;7.05;;;3.17;;
53022;SDS011;38913;44.338;11.206;2023-02-01T09:10:52;7.90;;;3.80;;
53022;SDS011;38913;44.338;11.206;2023-02-01T09:13:17;8.30;;;4.10;;
53022;SDS011;38913;44.338;11.206;2023-02-01T09:15:43;6.20;;;3.80;;
53022;SDS011;38913;44.338;11.206;2023-02-01T09:18:08;7.53;;;4.55;;
53022;SDS011;38913;44.338;11.206;2023-02-01T09:20:34;6.53;;;4.20;;
53022;SDS011;38913;44.338;11.206;2023-02-01T09:22:59;6.28;;;3.70;;
53022;SDS011;38913;44.338;11.206;2023-02-01T09:25:25;9.15;;;3.67;;
53022;SDS011;38913;44.338;11.206;2023-02-01T09:27:50;6.22;;;3.88;;
53022;SDS011;38913;44.338;11.206;2023-02-01T09:30:16;8.02;;;3.33;;
53022;SDS011;38913;44.338;11.206;2023-02-01T09:32:41;6.03;;;3.25;;
53022;SDS011;38913;44.338;11.206;2023-02-01T09:35:06;6.13;;;3.35;;
53022;SDS011;38913;44.338;11.206;2023-02-01T09:37:32;7.07;;;3.50;;
53022;SDS011;38913;44.338;11.206;2023-02-01T09:39:57;7.55;;;3.50;;
53022;SDS011;38913;44.338;11.206;2023-02-01T09:47:32;5.65;;;3.50;;
53022;SDS011;38913;44.338;11.206;2023-02-01T09:50:11;5.53;;;3.00;;
53022;SDS011;38913;44.338;11.206;2023-02-01T09:52:45;7.30;;;3.40;;
53022;SDS011;38913;44.338;11.206;2023-02-01T09:55:15;7.68;;;3.75;;
53022;SDS011;38913;44.338;11.206;2023-02-01T09:57:46;8.13;;;4.03;;
53022;SDS011;38913;44.338;11.206;2023-02-01T10:00:22;5.53;;;3.10;;
53022;SDS011;38913;44.338;11.206;2023-02-01T10:02:50;6.70;;;4.10;;
53022;SDS011;38913;44.338;11.206;2023-02-01T10:05:16;6.25;;;3.33;;
53022;SDS011;38913;44.338;11.206;2023-02-01T10:07:57;5.80;;;3.30;;
53022;SDS011;38913;44.338;11.206;2023-02-01T10:10:36;6.10;;;3.47;;
53022;SDS011;38913;44.338;11.206;2023-02-01T10:15:43;5.25;;;3.25;;
53022;SDS011;38913;44.338;11.206;2023-02-01T10:23:28;6.57;;;3.50;;
53022;SDS011;38913;44.338;11.206;2023-02-01T10:26:18;5.50;;;2.78;;
53022;SDS011;38913;44.338;11.206;2023-02-01T10:28:42;9.02;;;3.85;;
53022;SDS011;38913;44.338;11.206;2023-02-01T10:31:08;3.97;;;2.53;;
53022;SDS011;38913;44.338;11.206;2023-02-01T10:33:36;5.70;;;2.50;;
53022;SDS011;38913;44.338;11.206;2023-02-01T10:39:02;6.57;;;2.75;;
53022;SDS011;38913;44.338;11.206;2023-02-01T10:41:33;5.35;;;2.72;;
53022;SDS011;38913;44.338;11.206;2023-02-01T10:43:58;7.40;;;4.45;;
53022;SDS011;38913;44.338;11.206;2023-02-01T10:46:25;9.48;;;4.60;;
53022;SDS011;38913;44.338;11.206;2023-02-01T10:48:52;6.72;;;4.25;;
53022;SDS011;38913;44.338;11.206;2023-02-01T10:51:22;6.13;;;2.90;;
53022;SDS011;38913;44.338;11.206;2023-02-01T10:53:50;7.85;;;3.65;;
53022;SDS011;38913;44.338;11.206;2023-02-01T10:56:21;7.18;;;3.45;;
53022;SDS011;38913;44.338;11.206;2023-02-01T10:58:47;4.95;;;3.08;;
53022;SDS011;38913;44.338;11.206;2023-02-01T11:01:16;5.03;;;2.97;;
53022;SDS011;38913;44.338;11.206;2023-02-01T11:03:44;7.57;;;3.22;;
53022;SDS011;38913;44.338;11.206;2023-02-01T11:08:48;9.20;;;3.33;;
53022;SDS011;38913;44.338;11.206;2023-02-01T11:11:14;6.10;;;4.03;;
53022;SDS011;38913;44.338;11.206;2023-02-01T11:13:40;7.97;;;3.72;;
53022;SDS011;38913;44.338;11.206;2023-02-01T11:16:06;6.95;;;3.78;;
53022;SDS011;38913;44.338;11.206;2023-02-01T11:18:35;10.05;;;5.30;;
53022;SDS011;38913;44.338;11.206;2023-02-01T11:21:02;9.43;;;6.25;;
53022;SDS011;38913;44.338;11.206;2023-02-01T11:23:28;7.28;;;4.45;;
53022;SDS011;38913;44.338;11.206;2023-02-01T11:26:01;9.38;;;4.07;;
53022;SDS011;38913;44.338;11.206;2023-02-01T11:28:27;6.00;;;4.30;;
53022;SDS011;38913;44.338;11.206;2023-02-01T11:30:55;8.45;;;5.03;;
53022;SDS011;38913;44.338;11.206;2023-02-01T11:33:23;11.52;;;5.18;;
53022;SDS011;38913;44.338;11.206;2023-02-01T11:35:52;8.20;;;4.85;;
53022;SDS011;38913;44.338;11.206;2023-02-01T11:38:22;6.65;;;3.83;;
53022;SDS011;38913;44.338;11.206;2023-02-01T11:40:47;8.65;;;3.17;;
53022;SDS011;38913;44.338;11.206;2023-02-01T11:43:15;5.10;;;3.40;;
53022;SDS011;38913;44.338;11.206;2023-02-01T11:45:41;5.78;;;3.10;;
53022;SDS011;38913;44.338;11.206;2023-02-01T11:48:18;5.20;;;3.30;;
53022;SDS011;38913;44.338;11.206;2023-02-01T11:53:25;5.63;;;3.38;;
53022;SDS011;38913;44.338;11.206;2023-02-01T12:01:04;7.50;;;3.45;;
53022;SDS011;38913;44.338;11.206;2023-02-01T12:05:59;7.80;;;3.10;;
53022;SDS011;38913;44.338;11.206;2023-02-01T12:08:49;7.60;;;3.38;;
53022;SDS011;38913;44.338;11.206;2023-02-01T12:18:58;6.82;;;3.30;;
53022;SDS011;38913;44.338;11.206;2023-02-01T12:21:32;7.90;;;3.40;;
53022;SDS011;38913;44.338;11.206;2023-02-01T12:34:30;5.60;;;3.20;;
53022;SDS011;38913;44.338;11.206;2023-02-01T12:37:14;8.25;;;3.90;;
53022;SDS011;38913;44.338;11.206;2023-02-01T12:39:54;6.32;;;3.05;;
53022;SDS011;38913;44.338;11.206;2023-02-01T12:42:31;4.07;;;2.60;;
53022;SDS011;38913;44.338;11.206;2023-02-01T12:47:28;6.73;;;3.43;;
53022;SDS011;38913;44.338;11.206;2023-02-01T12:50:39;13.18;;;6.82;;
53022;SDS011;38913;44.338;11.206;2023-02-01T12:52:47;8.50;;;5.05;;
53022;SDS011;38913;44.338;11.206;2023-02-01T13:00:40;9.80;;;5.05;;
53022;SDS011;38913;44.338;11.206;2023-02-01T13:05:35;10.80;;;5.90;;
53022;SDS011;38913;44.338;11.206;2023-02-01T13:08:05;11.57;;;4.55;;
53022;SDS011;38913;44.338;11.206;2023-02-01T13:10:41;11.80;;;5.47;;
53022;SDS011;38913;44.338;11.206;2023-02-01T13:15:46;19.67;;;8.82;;
53022;SDS011;38913;44.338;11.206;2023-02-01T13:18:19;12.75;;;5.82;;
53022;SDS011;38913;44.338;11.206;2023-02-01T13:23:25;10.90;;;5.50;;
53022;SDS011;38913;44.338;11.206;2023-02-01T13:25:51;23.42;;;12.10;;
53022;SDS011;38913;44.338;11.206;2023-02-01T13:33:45;14.43;;;6.38;;
53022;SDS011;38913;44.338;11.206;2023-02-01T13:43:52;9.77;;;5.32;;
53022;SDS011;38913;44.338;11.206;2023-02-01T13:46:18;7.15;;;4.15;;
53022;SDS011;38913;44.338;11.206;2023-02-01T13:48:48;7.57;;;4.47;;
53022;SDS011;38913;44.338;11.206;2023-02-01T13:51:14;15.73;;;8.38;;
53022;SDS011;38913;44.338;11.206;2023-02-01T13:53:44;12.50;;;6.45;;
53022;SDS011;38913;44.338;11.206;2023-02-01T13:56:11;9.77;;;4.35;;
53022;SDS011;38913;44.338;11.206;2023-02-01T13:58:39;7.75;;;3.40;;
53022;SDS011;38913;44.338;11.206;2023-02-01T14:03:58;8.25;;;4.10;;
53022;SDS011;38913;44.338;11.206;2023-02-01T14:14:06;14.68;;;7.47;;
53022;SDS011;38913;44.338;11.206;2023-02-01T14:16:32;13.02;;;5.90;;
53022;SDS011;38913;44.338;11.206;2023-02-01T14:18:58;8.80;;;4.03;;
53022;SDS011;38913;44.338;11.206;2023-02-01T14:26:19;8.90;;;4.68;;
53022;SDS011;38913;44.338;11.206;2023-02-01T14:28:46;12.38;;;5.68;;
53022;SDS011;38913;44.338;11.206;2023-02-01T14:31:16;6.55;;;4.32;;
53022;SDS011;38913;44.338;11.206;2023-02-01T14:33:42;10.73;;;4.57;;
53022;SDS011;38913;44.338;11.206;2023-02-01T14:36:09;10.57;;;4.25;;
53022;SDS011;38913;44.338;11.206;2023-02-01T14:38:35;6.68;;;3.60;;
53022;SDS011;38913;44.338;11.206;2023-02-01T14:41:12;10.15;;;4.93;;
53022;SDS011;38913;44.338;11.206;2023-02-01T14:43:59;8.88;;;4.45;;
53022;SDS011;38913;44.338;11.206;2023-02-01T14:49:20;9.65;;;4.57;;
53022;SDS011;38913;44.338;11.206;2023-02-01T14:51:46;7.68;;;4.45;;
53022;SDS011;38913;44.338;11.206;2023-02-01T14:54:12;9.57;;;4.07;;
53022;SDS011;38913;44.338;11.206;2023-02-01T14:56:38;12.07;;;4.82;;
53022;SDS011;38913;44.338;11.206;2023-02-01T14:59:07;15.32;;;7.50;;
53022;SDS011;38913;44.338;11.206;2023-02-01T15:01:35;9.98;;;5.20;;
53022;SDS011;38913;44.338;11.206;2023-02-01T15:04:12;10.05;;;4.28;;
53022;SDS011;38913;44.338;11.206;2023-02-01T15:14:43;10.38;;;6.43;;
53022;SDS011;38913;44.338;11.206;2023-02-01T15:19:52;10.68;;;4.40;;
53022;SDS011;38913;44.338;11.206;2023-02-01T15:22:18;10.70;;;4.80;;
53022;SDS011;38913;44.338;11.206;2023-02-01T15:24:51;8.27;;;4.82;;
53022;SDS011;38913;44.338;11.206;2023-02-01T15:27:17;12.88;;;6.88;;
53022;SDS011;38913;44.338;11.206;2023-02-01T15:29:42;13.75;;;7.57;;
53022;SDS011;38913;44.338;11.206;2023-02-01T15:32:14;12.98;;;6.90;;
53022;SDS011;38913;44.338;11.206;2023-02-01T15:34:52;10.80;;;5.63;;
53022;SDS011;38913;44.338;11.206;2023-02-01T15:37:20;10.20;;;5.60;;
53022;SDS011;38913;44.338;11.206;2023-02-01T15:42:32;11.10;;;5.32;;
53022;SDS011;38913;44.338;11.206;2023-02-01T15:44:58;10.15;;;5.65;;
53022;SDS011;38913;44.338;11.206;2023-02-01T15:47:24;13.52;;;6.40;;
53022;SDS011;38913;44.338;11.206;2023-02-01T15:49:53;10.85;;;6.25;;
53022;SDS011;38913;44.338;11.206;2023-02-01T15:52:24;10.52;;;5.43;;
53022;SDS011;38913;44.338;11.206;2023-02-01T15:54:52;17.67;;;8.23;;
53022;SDS011;38913;44.338;11.206;2023-02-01T15:57:26;9.77;;;5.78;;
53022;SDS011;38913;44.338;11.206;2023-02-01T16:00:00;11.35;;;5.80;;
53022;SDS011;38913;44.338;11.206;2023-02-01T16:02:36;16.63;;;7.43;;
53022;SDS011;38913;44.338;11.206;2023-02-01T16:05:04;29.05;;;14.35;;
53022;SDS011;38913;44.338;11.206;2023-02-01T16:07:30;31.02;;;13.38;;
53022;SDS011;38913;44.338;11.206;2023-02-01T16:09:57;26.33;;;11.65;;
53022;SDS011;38913;44.338;11.206;2023-02-01T16:14:48;14.38;;;7.63;;
53022;SDS011;38913;44.338;11.206;2023-02-01T16:17:14;9.50;;;5.13;;
53022;SDS011;38913;44.338;11.206;2023-02-01T16:19:40;11.38;;;5.82;;
53022;SDS011;38913;44.338;11.206;2023-02-01T16:22:05;11.05;;;7.20;;
53022;SDS011;38913;44.338;11.206;2023-02-01T16:24:30;12.52;;;7.13;;
53022;SDS011;38913;44.338;11.206;2023-02-01T16:26:57;11.45;;;6.07;;
53022;SDS011;38913;44.338;11.206;2023-02-01T16:29:23;9.10;;;5.70;;
53022;SDS011;38913;44.338;11.206;2023-02-01T16:31:48;11.38;;;6.00;;
53022;SDS011;38913;44.338;11.206;2023-02-01T16:34:15;11.00;;;5.70;;
53022;SDS011;38913;44.338;11.206;2023-02-01T16:36:46;12.02;;;5.43;;
53022;SDS011;38913;44.338;11.206;2023-02-01T16:39:16;10.05;;;5.88;;
53022;SDS011;38913;44.338;11.206;2023-02-01T16:41:42;11.05;;;6.55;;
53022;SDS011;38913;44.338;11.206;2023-02-01T16:44:07;9.80;;;4.93;;
53022;SDS011;38913;44.338;11.206;2023-02-01T16:46:33;12.05;;;5.70;;
53022;SDS011;38913;44.338;11.206;2023-02-01T16:49:00;7.53;;;4.97;;
53022;SDS011;38913;44.338;11.206;2023-02-01T16:51:27;7.45;;;4.63;;
53022;SDS011;38913;44.338;11.206;2023-02-01T16:53:53;8.32;;;5.95;;
53022;SDS011;38913;44.338;11.206;2023-02-01T16:56:22;10.73;;;6.50;;
53022;SDS011;38913;44.338;11.206;2023-02-01T16:58:48;10.50;;;6.68;;
53022;SDS011;38913;44.338;11.206;2023-02-01T17:01:14;8.57;;;6.07;;